• Join FlightAware (Why Join?)
  • Login
  • US Flag 
04:04AM EST


 

Airport Tracker/Info


-or-


 

Live Flight TrackerFlight Track Log ✈ SWA3608 ✈ 01-Nov-2013 ✈ KDAL - KSAT

Flight Track Log - Related Links

Times and Time Zones

All times are in EDT time to prevent confusion due to time zone crossing. See the SWA3608 flight status page for this flight to view local times or setup timezone preferences in your user account.

Time Position Orientation Groundspeed Altitude Reporting Facility
EDT Latitude Longitude Course Direction KTS MPH feet Rate Location/Type
05:59PM 32.8667 -96.8667 320° Northwest 147 169 1,600  Level Dallas / Fort Worth TRACON
06:00PM 32.9000 -96.9000 320° Northwest 218 251 3,300 2,160 Climbing Dallas / Fort Worth TRACON
06:01PM 32.9000 -96.9833 270° West 263 303 5,800 2,760 Climbing Dallas / Fort Worth TRACON
06:02PM 32.8333 -97.0333 212° Southwest 289 333 9,100 2,760 Climbing Dallas / Fort Worth TRACON
06:04PM 32.6700 -97.0408 182° South 323 372 14,000 2,640 Climbing Fort Worth Center
06:05PM 32.5697 -97.0461 183° South 354 407 16,700 2,820 Climbing Fort Worth Center
06:06PM 32.4717 -97.0489 181° South 364 419 19,700 2,400 Climbing Fort Worth Center
06:07PM 32.3653 -97.0567 184° South 364 419 21,500 1,860 Climbing Fort Worth Center
06:08PM 32.2567 -97.0619 182° South 387 445 23,500 1,500 Climbing Fort Worth Center
06:09PM 32.1564 -97.0797 189° South 394 453 24,600 1,380 Climbing Fort Worth Center
06:10PM 32.0439 -97.1069 192° South 407 468 26,300 1,740 Climbing Fort Worth Center
06:11PM 31.9167 -97.1417 193° South 420 483 28,100 1,500 Climbing Fort Worth Center
06:12PM 31.8019 -97.1714 192° South 420 483 29,400 960 Climbing Fort Worth Center
06:13PM 31.6828 -97.2008 192° South 440 506 30,100 240 Climbing Fort Worth Center
06:15PM 31.5128 -97.2444 192° South 462 532 30,100  Level Houston Center
06:16PM 31.3864 -97.2756 192° South 461 531 30,100  Level Houston Center
06:17PM 31.2603 -97.3081 192° South 461 531 30,100  Level Houston Center
06:18PM 31.1364 -97.3411 193° South 457 526 30,100  Level Houston Center
06:19PM 30.9917 -97.3772 192° South 458 527 30,100  Level Houston Center
06:20PM 30.8686 -97.4086 192° South 459 528 30,100  Level Houston Center
06:21PM 30.7450 -97.4386 192° South 456 525 30,100  Level Houston Center
06:22PM 30.6219 -97.4694 192° South 451 519 30,100 -900 Level Houston Center
06:23PM 30.4983 -97.5008 192° South 450 518 28,300 -2,340 Descending Houston Center
06:24PM 30.3617 -97.5400 194° South 432 497 25,300 -2,640 Descending Houston Center
06:25PM 30.2672 -97.6069 211° Southwest 394 453 22,900 -2,280 Descending Houston Center
06:26PM 30.1781 -97.6694 211° Southwest 374 430 20,600 -2,220 Descending Houston Center
06:27PM 30.0944 -97.7267 211° Southwest 354 407 18,400 -2,400 Descending Houston Center
06:27PM 30.0761 -97.7400 212° Southwest 342 394 17,800 -1,500 Descending Houston Center
06:28PM 30.0092 -97.7850 210° Southwest 328 377 16,900 -1,500 Descending Houston Center
06:28PM 29.9994 -97.7933 217° Southwest 319 367 16,300 -3,240 Descending Houston Center
06:29PM 29.9278 -97.8408 210° Southwest 318 366 13,600 -2,880 Descending Houston Center
06:29PM 29.9222 -97.8442 207° Southwest 316 364 13,400 -2,220 Descending Houston Center
06:30PM 29.8711 -97.9231 233° Southwest 304 350 11,100 -1,800 Descending Houston Center
06:31PM 29.8367 -98.0044 244° Southwest 281 323 9,800 -1,260 Descending Houston Center
06:32PM 29.8075 -98.0731 244° Southwest 260 299 8,700 -1,260 Descending Houston Center
06:32PM 29.8053 -98.0803 250° West 265 305 8,600 -1,020 Descending Houston Center
06:33PM 29.7681 -98.1672 244° Southwest 262 302 7,500 -1,020 Descending Houston Center
06:34PM 29.7392 -98.2372 245° Southwest 262 302 6,500 -1,020 Descending Houston Center
06:34PM 29.7375 -98.2431 252° West 262 302 6,500 -540 Level Houston Center
06:35PM 29.7039 -98.3097 240° Southwest 260 299 6,000 -540 Descending Houston Center
06:35PM 29.7056 -98.3103 344° North 260 299 6,000 -480 Level Houston Center
06:36PM 29.6411 -98.3367 200° South 271 312 5,600 -600 Descending Houston Center
06:36PM 29.6306 -98.3361 177° South 266 306 5,400 -1,440 Descending Houston Center
06:37PM 29.5678 -98.3383 182° South 264 304 4,200 -1,260 Descending Houston Center
06:37PM 29.5567 -98.3389 182° South 262 302 4,100 -900 Descending Houston Center
06:38PM 29.4967 -98.3397 181° South 247 284 3,300 -780 Descending Houston Center
06:38PM 29.4881 -98.3417 191° South 248 285 3,300 -720 Level Houston Center
06:39PM 29.4575 -98.3708 220° Southwest 170 196 2,500 -900 Descending Houston Center
06:39PM 29.4597 -98.3753 300° West 183 211 2,400 -420 Descending Houston Center
06:40PM 29.4839 -98.4086 310° West 132 152 2,100 -420 Descending Houston Center
06:41PM 29.4869 -98.4125 312° West 155 178 2,000 -720 Descending Houston Center
06:41PM 29.5056 -98.4372 311° West 111 128 1,400 -720 Descending Houston Center
06:42PM 29.5100 -98.4422 316° Northwest 121 139 1,300 -540 Descending Houston Center
06:43PM 29.5339 -98.4725 312° West 122 140 800 -540 Descending Houston Center